WAT630 KDSM-KMSP
Flight info
| Callsign | WAT630 |
|---|---|
| Flight time | 0h 48m |
| Altitude | 23000 |
| Route | MCW KASPR8 |
| Aircraft | DH8D/M-SDE2E3FGRY/H |
Departure
| Time | 2026-04-16 23:00 |
|---|---|
| Airport | Des Moines International Airport (KDSM) |
Arrival
| Time | 2026-04-16 23:48 |
|---|---|
| Airport | Minneapolis–Saint Paul International Airport / Wold–Chamberlain Field (KMSP) |
| Time | Latitude | Longitude | Altitude | Speed | Heading |
|---|---|---|---|---|---|
| 2026-04-16 22:47 | 41.53483 | -93.65078 | 944 ft | 0 kts | 173° |
| 2026-04-16 22:57 | 41.53473 | -93.65085 | 944 ft | 1 kts | 250° |
| 2026-04-16 22:58 | 41.53505 | -93.65159 | 944 ft | 17 kts | 319° |
| 2026-04-16 22:58 | 41.53581 | -93.65198 | 943 ft | 7 kts | 45° |
| 2026-04-16 22:58 | 41.53650 | -93.65075 | 942 ft | 22 kts | 55° |
| 2026-04-16 22:58 | 41.53696 | -93.65016 | 941 ft | 8 kts | 13° |
| 2026-04-16 22:59 | 41.53758 | -93.65055 | 941 ft | 9 kts | 300° |
| 2026-04-16 22:59 | 41.53757 | -93.65123 | 941 ft | 13 kts | 238° |
| 2026-04-16 22:59 | 41.53751 | -93.65134 | 941 ft | 0 kts | 233° |
| 2026-04-16 22:59 | 41.53592 | -93.65423 | 943 ft | 87 kts | 233° |
| 2026-04-16 23:00 | 41.53089 | -93.66354 | 955 ft | 152 kts | 233° |
| 2026-04-16 23:00 | 41.52498 | -93.67701 | 1213 ft | 185 kts | 239° |
| 2026-04-16 23:00 | 41.51864 | -93.69295 | 1819 ft | 193 kts | 236° |
| 2026-04-16 23:00 | 41.51154 | -93.70720 | 2608 ft | 196 kts | 233° |
| 2026-04-16 23:01 | 41.50426 | -93.72359 | 3038 ft | 217 kts | 246° |
| 2026-04-16 23:01 | 41.50337 | -93.74388 | 3642 ft | 232 kts | 279° |
| 2026-04-16 23:01 | 41.51040 | -93.76341 | 4377 ft | 239 kts | 300° |
| 2026-04-16 23:01 | 41.52360 | -93.77704 | 5070 ft | 250 kts | 339° |
| 2026-04-16 23:02 | 41.54091 | -93.77787 | 5767 ft | 256 kts | 5° |
| 2026-04-16 23:02 | 41.55850 | -93.77415 | 6469 ft | 259 kts | 7° |
| 2026-04-16 23:02 | 41.57617 | -93.76995 | 7254 ft | 258 kts | 8° |
| 2026-04-16 23:02 | 41.59365 | -93.76555 | 7947 ft | 259 kts | 8° |
| 2026-04-16 23:03 | 41.61116 | -93.76098 | 8660 ft | 259 kts | 8° |
| 2026-04-16 23:03 | 41.62881 | -93.75626 | 9348 ft | 260 kts | 9° |
| 2026-04-16 23:03 | 41.64642 | -93.75147 | 10018 ft | 261 kts | 8° |
| 2026-04-16 23:03 | 41.66444 | -93.74651 | 10674 ft | 263 kts | 9° |
| 2026-04-16 23:04 | 41.68238 | -93.74152 | 11307 ft | 267 kts | 8° |
| 2026-04-16 23:04 | 41.70080 | -93.73637 | 11737 ft | 277 kts | 9° |
| 2026-04-16 23:04 | 41.71964 | -93.73106 | 12311 ft | 282 kts | 9° |
| 2026-04-16 23:04 | 41.73873 | -93.72566 | 12974 ft | 283 kts | 9° |
| 2026-04-16 23:05 | 41.75816 | -93.72013 | 13606 ft | 286 kts | 9° |
| 2026-04-16 23:05 | 41.77778 | -93.71455 | 14228 ft | 289 kts | 9° |
| 2026-04-16 23:05 | 41.79739 | -93.70895 | 14859 ft | 292 kts | 9° |
| 2026-04-16 23:05 | 41.81721 | -93.70328 | 15511 ft | 294 kts | 8° |
| 2026-04-16 23:06 | 41.83737 | -93.69751 | 16118 ft | 297 kts | 8° |
| 2026-04-16 23:06 | 41.85755 | -93.69173 | 16728 ft | 300 kts | 8° |
| 2026-04-16 23:06 | 41.87792 | -93.68589 | 17341 ft | 303 kts | 8° |
| 2026-04-16 23:06 | 41.89847 | -93.67999 | 17994 ft | 304 kts | 8° |
| 2026-04-16 23:07 | 41.91930 | -93.67400 | 18572 ft | 308 kts | 8° |
| 2026-04-16 23:07 | 41.94031 | -93.66795 | 19193 ft | 311 kts | 8° |
| 2026-04-16 23:07 | 41.96149 | -93.66186 | 19781 ft | 314 kts | 8° |
| 2026-04-16 23:07 | 41.98273 | -93.65575 | 20371 ft | 317 kts | 8° |
| 2026-04-16 23:08 | 42.00460 | -93.64944 | 20993 ft | 320 kts | 8° |
| 2026-04-16 23:08 | 42.02625 | -93.64320 | 21514 ft | 325 kts | 8° |
| 2026-04-16 23:08 | 42.04848 | -93.63678 | 22146 ft | 327 kts | 8° |
| 2026-04-16 23:08 | 42.07052 | -93.63039 | 22580 ft | 324 kts | 8° |
| 2026-04-16 23:09 | 42.09268 | -93.62405 | 22610 ft | 325 kts | 8° |
| 2026-04-16 23:09 | 42.11473 | -93.61771 | 22659 ft | 326 kts | 8° |
| 2026-04-16 23:09 | 42.13701 | -93.61130 | 22716 ft | 327 kts | 8° |
| 2026-04-16 23:09 | 42.15932 | -93.60486 | 22771 ft | 328 kts | 8° |
| 2026-04-16 23:10 | 42.18160 | -93.59842 | 22825 ft | 328 kts | 8° |
| 2026-04-16 23:10 | 42.20387 | -93.59197 | 22883 ft | 329 kts | 8° |
| 2026-04-16 23:10 | 42.22616 | -93.58550 | 22937 ft | 329 kts | 8° |
| 2026-04-16 23:10 | 42.24876 | -93.57893 | 22986 ft | 329 kts | 8° |
| 2026-04-16 23:11 | 42.27121 | -93.57241 | 22995 ft | 331 kts | 8° |
| 2026-04-16 23:11 | 42.29379 | -93.56585 | 22995 ft | 333 kts | 7° |
| 2026-04-16 23:11 | 42.31628 | -93.55930 | 22995 ft | 335 kts | 7° |
| 2026-04-16 23:11 | 42.33898 | -93.55269 | 22996 ft | 336 kts | 7° |
| 2026-04-16 23:12 | 42.36209 | -93.54595 | 22997 ft | 337 kts | 8° |
| 2026-04-16 23:12 | 42.38496 | -93.53927 | 22997 ft | 338 kts | 7° |
| 2026-04-16 23:12 | 42.40797 | -93.53255 | 22996 ft | 339 kts | 8° |
| 2026-04-16 23:12 | 42.43081 | -93.52571 | 23000 ft | 340 kts | 8° |
| 2026-04-16 23:13 | 42.45398 | -93.51849 | 23001 ft | 341 kts | 8° |
| 2026-04-16 23:13 | 42.47721 | -93.51174 | 22999 ft | 341 kts | 7° |
| 2026-04-16 23:13 | 42.50041 | -93.50507 | 22997 ft | 341 kts | 7° |
| 2026-04-16 23:13 | 42.52343 | -93.49843 | 22906 ft | 344 kts | 7° |
| 2026-04-16 23:14 | 42.54696 | -93.49161 | 22873 ft | 344 kts | 7° |
| 2026-04-16 23:14 | 42.57027 | -93.48482 | 22865 ft | 344 kts | 7° |
| 2026-04-16 23:14 | 42.59354 | -93.47801 | 22857 ft | 344 kts | 7° |
| 2026-04-16 23:14 | 42.61711 | -93.47111 | 22858 ft | 343 kts | 7° |
| 2026-04-16 23:15 | 42.66372 | -93.45741 | 22857 ft | 343 kts | 7° |
| 2026-04-16 23:15 | 42.68680 | -93.45062 | 22854 ft | 343 kts | 7° |
| 2026-04-16 23:15 | 42.71012 | -93.44375 | 22853 ft | 343 kts | 7° |
| 2026-04-16 23:16 | 42.73338 | -93.43688 | 22856 ft | 343 kts | 7° |
| 2026-04-16 23:16 | 42.75687 | -93.42994 | 22859 ft | 343 kts | 7° |
| 2026-04-16 23:16 | 42.77999 | -93.42311 | 22860 ft | 343 kts | 7° |
| 2026-04-16 23:16 | 42.80316 | -93.41625 | 22861 ft | 342 kts | 7° |
| 2026-04-16 23:17 | 42.82670 | -93.40928 | 22862 ft | 343 kts | 7° |
| 2026-04-16 23:17 | 42.84980 | -93.40243 | 22860 ft | 343 kts | 7° |
| 2026-04-16 23:17 | 42.87328 | -93.39547 | 22859 ft | 343 kts | 7° |
| 2026-04-16 23:17 | 42.89629 | -93.38864 | 22859 ft | 343 kts | 7° |
| 2026-04-16 23:18 | 42.91983 | -93.38165 | 22856 ft | 344 kts | 7° |
| 2026-04-16 23:18 | 42.94313 | -93.37472 | 22857 ft | 344 kts | 7° |
| 2026-04-16 23:18 | 42.96640 | -93.36779 | 22852 ft | 344 kts | 7° |
| 2026-04-16 23:18 | 42.98997 | -93.36077 | 22854 ft | 344 kts | 7° |
| 2026-04-16 23:19 | 43.01303 | -93.35390 | 22860 ft | 344 kts | 7° |
| 2026-04-16 23:19 | 43.03669 | -93.34683 | 22855 ft | 344 kts | 8° |
| 2026-04-16 23:19 | 43.06000 | -93.33987 | 22855 ft | 344 kts | 8° |
| 2026-04-16 23:19 | 43.08334 | -93.33291 | 22855 ft | 344 kts | 8° |
| 2026-04-16 23:20 | 43.10664 | -93.32793 | 22850 ft | 340 kts | 0° |
| 2026-04-16 23:20 | 43.13042 | -93.32560 | 22849 ft | 339 kts | 359° |
| 2026-04-16 23:20 | 43.15384 | -93.32352 | 22850 ft | 339 kts | 359° |
| 2026-04-16 23:20 | 43.17754 | -93.32140 | 22848 ft | 339 kts | 359° |
| 2026-04-16 23:21 | 43.20104 | -93.31928 | 22852 ft | 339 kts | 359° |
| 2026-04-16 23:21 | 43.22454 | -93.31712 | 22854 ft | 339 kts | 359° |
| 2026-04-16 23:21 | 43.24799 | -93.31496 | 22861 ft | 340 kts | 359° |
| 2026-04-16 23:21 | 43.27198 | -93.31275 | 22585 ft | 348 kts | 359° |
| 2026-04-16 23:22 | 43.29615 | -93.31052 | 22220 ft | 356 kts | 359° |
| 2026-04-16 23:22 | 43.32109 | -93.30821 | 21815 ft | 361 kts | 359° |
| 2026-04-16 23:22 | 43.34605 | -93.30586 | 21407 ft | 356 kts | 360° |
| 2026-04-16 23:22 | 43.37019 | -93.30357 | 21146 ft | 347 kts | 359° |
| 2026-04-16 23:23 | 43.39441 | -93.30132 | 20790 ft | 349 kts | 360° |
| 2026-04-16 23:23 | 43.41853 | -93.29906 | 20402 ft | 351 kts | 360° |
| 2026-04-16 23:23 | 43.44307 | -93.29675 | 19995 ft | 353 kts | 360° |
| 2026-04-16 23:23 | 43.46742 | -93.29445 | 19590 ft | 354 kts | 0° |
| 2026-04-16 23:24 | 43.49188 | -93.29213 | 19185 ft | 354 kts | 0° |
| 2026-04-16 23:24 | 43.51664 | -93.28978 | 18780 ft | 355 kts | 0° |
| 2026-04-16 23:24 | 43.54116 | -93.28745 | 18376 ft | 355 kts | 0° |
| 2026-04-16 23:24 | 43.56585 | -93.28509 | 17971 ft | 355 kts | 0° |
| 2026-04-16 23:25 | 43.59045 | -93.28275 | 17568 ft | 354 kts | 0° |
| 2026-04-16 23:25 | 43.61493 | -93.28041 | 17167 ft | 354 kts | 0° |
| 2026-04-16 23:25 | 43.63938 | -93.27808 | 16760 ft | 354 kts | 0° |
| 2026-04-16 23:25 | 43.66389 | -93.27573 | 16357 ft | 353 kts | 0° |
| 2026-04-16 23:26 | 43.68842 | -93.27338 | 15952 ft | 353 kts | 0° |
| 2026-04-16 23:26 | 43.71287 | -93.27104 | 15547 ft | 353 kts | 0° |
| 2026-04-16 23:26 | 43.73736 | -93.26869 | 15146 ft | 352 kts | 0° |
| 2026-04-16 23:26 | 43.76184 | -93.26635 | 14743 ft | 352 kts | 0° |
| 2026-04-16 23:27 | 43.78594 | -93.26403 | 14349 ft | 351 kts | 0° |
| 2026-04-16 23:27 | 43.81017 | -93.26170 | 13952 ft | 350 kts | 0° |
| 2026-04-16 23:27 | 43.83429 | -93.25935 | 13544 ft | 339 kts | 0° |
| 2026-04-16 23:27 | 43.85736 | -93.25710 | 13162 ft | 332 kts | 0° |
| 2026-04-16 23:28 | 43.88001 | -93.25491 | 12785 ft | 325 kts | 0° |
| 2026-04-16 23:28 | 43.90255 | -93.25273 | 12419 ft | 320 kts | 0° |
| 2026-04-16 23:28 | 43.92429 | -93.25063 | 12062 ft | 315 kts | 0° |
| 2026-04-16 23:28 | 43.94617 | -93.24852 | 11695 ft | 311 kts | 0° |
| 2026-04-16 23:29 | 43.96745 | -93.24647 | 11347 ft | 308 kts | 360° |
| 2026-04-16 23:29 | 43.98869 | -93.24442 | 11003 ft | 305 kts | 360° |
| 2026-04-16 23:29 | 44.00973 | -93.24240 | 10653 ft | 300 kts | 360° |
| 2026-04-16 23:29 | 44.03023 | -93.24045 | 10303 ft | 295 kts | 360° |
| 2026-04-16 23:30 | 44.05068 | -93.23849 | 9977 ft | 291 kts | 360° |
| 2026-04-16 23:30 | 44.07087 | -93.23655 | 9650 ft | 288 kts | 359° |
| 2026-04-16 23:30 | 44.09055 | -93.23466 | 9327 ft | 286 kts | 359° |
| 2026-04-16 23:30 | 44.11036 | -93.23276 | 8999 ft | 284 kts | 359° |
| 2026-04-16 23:31 | 44.13022 | -93.23085 | 8674 ft | 286 kts | 360° |
| 2026-04-16 23:31 | 44.14948 | -93.22898 | 8361 ft | 289 kts | 0° |
| 2026-04-16 23:31 | 44.16959 | -93.22703 | 8033 ft | 291 kts | 0° |
| 2026-04-16 23:31 | 44.18963 | -93.22508 | 7702 ft | 291 kts | 1° |
| 2026-04-16 23:32 | 44.20972 | -93.22313 | 7368 ft | 289 kts | 1° |
| 2026-04-16 23:32 | 44.22975 | -93.22118 | 7037 ft | 287 kts | 1° |
| 2026-04-16 23:32 | 44.24947 | -93.21925 | 6932 ft | 276 kts | 1° |
| 2026-04-16 23:32 | 44.26802 | -93.21742 | 6967 ft | 264 kts | 1° |
| 2026-04-16 23:33 | 44.28662 | -93.21558 | 7005 ft | 275 kts | 1° |
| 2026-04-16 23:33 | 44.30608 | -93.21363 | 7010 ft | 283 kts | 1° |
| 2026-04-16 23:33 | 44.32541 | -93.21178 | 7004 ft | 278 kts | 1° |
| 2026-04-16 23:33 | 44.34459 | -93.20993 | 7007 ft | 275 kts | 1° |
| 2026-04-16 23:34 | 44.36382 | -93.20808 | 7014 ft | 275 kts | 1° |
| 2026-04-16 23:34 | 44.38304 | -93.20621 | 7015 ft | 277 kts | 1° |
| 2026-04-16 23:34 | 44.40209 | -93.20436 | 7014 ft | 278 kts | 1° |
| 2026-04-16 23:34 | 44.42162 | -93.20245 | 7013 ft | 279 kts | 1° |
| 2026-04-16 23:35 | 44.44095 | -93.20057 | 7013 ft | 280 kts | 1° |
| 2026-04-16 23:35 | 44.46043 | -93.19865 | 7007 ft | 281 kts | 1° |
| 2026-04-16 23:35 | 44.47996 | -93.19674 | 7005 ft | 282 kts | 1° |
| 2026-04-16 23:35 | 44.49976 | -93.19480 | 7003 ft | 283 kts | 1° |
| 2026-04-16 23:36 | 44.51918 | -93.19289 | 7000 ft | 283 kts | 1° |
| 2026-04-16 23:36 | 44.53908 | -93.19093 | 7003 ft | 284 kts | 1° |
| 2026-04-16 23:36 | 44.55863 | -93.18900 | 7004 ft | 284 kts | 1° |
| 2026-04-16 23:36 | 44.57841 | -93.18705 | 6999 ft | 285 kts | 1° |
| 2026-04-16 23:37 | 44.59826 | -93.18508 | 6998 ft | 285 kts | 1° |
| 2026-04-16 23:37 | 44.61800 | -93.18315 | 6999 ft | 284 kts | 1° |
| 2026-04-16 23:37 | 44.63739 | -93.18587 | 6987 ft | 277 kts | 338° |
| 2026-04-16 23:37 | 44.65488 | -93.19607 | 7000 ft | 274 kts | 332° |
| 2026-04-16 23:38 | 44.67242 | -93.20707 | 6993 ft | 275 kts | 331° |
| 2026-04-16 23:38 | 44.68986 | -93.21809 | 6988 ft | 275 kts | 331° |
| 2026-04-16 23:38 | 44.70730 | -93.22910 | 6988 ft | 275 kts | 331° |
| 2026-04-16 23:38 | 44.72481 | -93.24013 | 6990 ft | 275 kts | 331° |
| 2026-04-16 23:39 | 44.74235 | -93.25115 | 6989 ft | 275 kts | 331° |
| 2026-04-16 23:39 | 44.75994 | -93.26224 | 6986 ft | 276 kts | 331° |
| 2026-04-16 23:39 | 44.77737 | -93.27329 | 6984 ft | 276 kts | 331° |
| 2026-04-16 23:39 | 44.79436 | -93.28610 | 6806 ft | 277 kts | 317° |
| 2026-04-16 23:40 | 44.80570 | -93.30730 | 6583 ft | 271 kts | 291° |
| 2026-04-16 23:40 | 44.81342 | -93.33054 | 6347 ft | 260 kts | 289° |
| 2026-04-16 23:40 | 44.82083 | -93.35348 | 6094 ft | 252 kts | 289° |
| 2026-04-16 23:40 | 44.82791 | -93.37560 | 5847 ft | 249 kts | 289° |
| 2026-04-16 23:41 | 44.83499 | -93.39751 | 5604 ft | 248 kts | 291° |
| 2026-04-16 23:41 | 44.84434 | -93.41826 | 5357 ft | 250 kts | 300° |
| 2026-04-16 23:41 | 44.85451 | -93.43817 | 5115 ft | 249 kts | 301° |
| 2026-04-16 23:41 | 44.86703 | -93.45486 | 4859 ft | 257 kts | 326° |
| 2026-04-16 23:42 | 44.88368 | -93.46467 | 4629 ft | 258 kts | 338° |
| 2026-04-16 23:42 | 44.90038 | -93.47327 | 4394 ft | 258 kts | 338° |
| 2026-04-16 23:42 | 44.91774 | -93.47980 | 4141 ft | 260 kts | 356° |
| 2026-04-16 23:42 | 44.93557 | -93.47582 | 3901 ft | 257 kts | 21° |
| 2026-04-16 23:43 | 44.95214 | -93.46749 | 3666 ft | 249 kts | 22° |
| 2026-04-16 23:43 | 44.96816 | -93.45937 | 3415 ft | 241 kts | 24° |
| 2026-04-16 23:43 | 44.98148 | -93.44699 | 3140 ft | 221 kts | 59° |
| 2026-04-16 23:43 | 44.98547 | -93.42843 | 2873 ft | 187 kts | 107° |
| 2026-04-16 23:44 | 44.97925 | -93.41482 | 2603 ft | 159 kts | 158° |
| 2026-04-16 23:44 | 44.96920 | -93.41044 | 2446 ft | 143 kts | 160° |
| 2026-04-16 23:44 | 44.96212 | -93.40148 | 2480 ft | 139 kts | 130° |
| 2026-04-16 23:44 | 44.95665 | -93.39033 | 2477 ft | 135 kts | 134° |
| 2026-04-16 23:45 | 44.95105 | -93.37968 | 2495 ft | 138 kts | 131° |
| 2026-04-16 23:45 | 44.94547 | -93.36773 | 2522 ft | 150 kts | 129° |
| 2026-04-16 23:45 | 44.93963 | -93.35468 | 2518 ft | 165 kts | 128° |
| 2026-04-16 23:45 | 44.93337 | -93.34036 | 2510 ft | 176 kts | 127° |
| 2026-04-16 23:46 | 44.92679 | -93.32510 | 2337 ft | 183 kts | 127° |
| 2026-04-16 23:46 | 44.92049 | -93.31035 | 2052 ft | 172 kts | 127° |
| 2026-04-16 23:46 | 44.91460 | -93.29662 | 1886 ft | 154 kts | 128° |
| 2026-04-16 23:46 | 44.90921 | -93.28404 | 1656 ft | 145 kts | 128° |
| 2026-04-16 23:47 | 44.90416 | -93.27235 | 1461 ft | 137 kts | 128° |
| 2026-04-16 23:47 | 44.89934 | -93.26113 | 1279 ft | 127 kts | 128° |
| 2026-04-16 23:47 | 44.89479 | -93.25064 | 1127 ft | 122 kts | 128° |
| 2026-04-16 23:47 | 44.89063 | -93.24103 | 982 ft | 110 kts | 127° |
| 2026-04-16 23:48 | 44.88676 | -93.23170 | 862 ft | 108 kts | 125° |
| 2026-04-16 23:48 | 44.88338 | -93.22401 | 838 ft | 69 kts | 120° |
| 2026-04-16 23:48 | 44.88144 | -93.21945 | 834 ft | 45 kts | 121° |
| 2026-04-16 23:48 | 44.88062 | -93.21724 | 832 ft | 18 kts | 92° |
| 2026-04-16 23:49 | 44.88104 | -93.21606 | 832 ft | 10 kts | 69° |
| 2026-04-16 23:49 | 44.88103 | -93.21523 | 831 ft | 8 kts | 74° |
| 2026-04-16 23:49 | 44.88137 | -93.21433 | 830 ft | 6 kts | 70° |
| 2026-04-16 23:49 | 44.88155 | -93.21371 | 830 ft | 6 kts | 58° |
| 2026-04-16 23:50 | 44.88164 | -93.21352 | 830 ft | 0 kts | 52° |